sensor_id;sensor_type;location;lat;lon;timestamp;temperature;humidity
41592;DHT22;28026;48.562;14.440;2023-09-19T00:02:17;15.80;99.90
41592;DHT22;28026;48.562;14.440;2023-09-19T00:04:48;15.90;99.90
41592;DHT22;28026;48.562;14.440;2023-09-19T00:07:20;15.80;99.90
41592;DHT22;28026;48.562;14.440;2023-09-19T00:09:52;15.80;99.90
41592;DHT22;28026;48.562;14.440;2023-09-19T00:12:22;15.80;99.90
41592;DHT22;28026;48.562;14.440;2023-09-19T00:14:54;15.80;99.90
41592;DHT22;28026;48.562;14.440;2023-09-19T00:17:24;15.80;99.90
41592;DHT22;28026;48.562;14.440;2023-09-19T00:19:55;15.80;99.90
41592;DHT22;28026;48.562;14.440;2023-09-19T00:22:26;15.80;99.90
41592;DHT22;28026;48.562;14.440;2023-09-19T00:24:57;15.60;99.90
41592;DHT22;28026;48.562;14.440;2023-09-19T00:27:28;15.50;99.90
41592;DHT22;28026;48.562;14.440;2023-09-19T00:29:59;15.50;99.90
41592;DHT22;28026;48.562;14.440;2023-09-19T00:32:30;15.40;99.90
41592;DHT22;28026;48.562;14.440;2023-09-19T00:35:01;15.30;99.90
41592;DHT22;28026;48.562;14.440;2023-09-19T00:37:32;15.40;99.90
41592;DHT22;28026;48.562;14.440;2023-09-19T00:40:04;15.50;99.90
41592;DHT22;28026;48.562;14.440;2023-09-19T00:42:36;15.50;99.90
41592;DHT22;28026;48.562;14.440;2023-09-19T00:45:09;15.50;99.90
41592;DHT22;28026;48.562;14.440;2023-09-19T00:47:44;15.40;99.90
41592;DHT22;28026;48.562;14.440;2023-09-19T00:50:25;15.40;99.90
41592;DHT22;28026;48.562;14.440;2023-09-19T00:52:58;15.40;99.90
41592;DHT22;28026;48.562;14.440;2023-09-19T00:55:29;15.50;99.90
41592;DHT22;28026;48.562;14.440;2023-09-19T00:58:03;15.60;99.90
41592;DHT22;28026;48.562;14.440;2023-09-19T01:00:37;15.60;99.90
41592;DHT22;28026;48.562;14.440;2023-09-19T01:03:09;15.60;99.90
41592;DHT22;28026;48.562;14.440;2023-09-19T01:05:41;15.50;99.90
41592;DHT22;28026;48.562;14.440;2023-09-19T01:08:13;15.40;99.90
41592;DHT22;28026;48.562;14.440;2023-09-19T01:10:52;15.40;99.90
41592;DHT22;28026;48.562;14.440;2023-09-19T01:14:04;15.50;99.90
41592;DHT22;28026;48.562;14.440;2023-09-19T01:17:14;15.50;99.90
41592;DHT22;28026;48.562;14.440;2023-09-19T01:31:40;15.30;99.90
41592;DHT22;28026;48.562;14.440;2023-09-19T01:34:15;15.30;99.90
41592;DHT22;28026;48.562;14.440;2023-09-19T01:36:46;15.30;99.90
41592;DHT22;28026;48.562;14.440;2023-09-19T01:39:17;15.30;99.90
41592;DHT22;28026;48.562;14.440;2023-09-19T01:42:15;15.30;99.90
41592;DHT22;28026;48.562;14.440;2023-09-19T01:45:13;15.40;99.90
41592;DHT22;28026;48.562;14.440;2023-09-19T01:47:55;15.30;99.90
41592;DHT22;28026;48.562;14.440;2023-09-19T01:51:05;15.20;99.90
41592;DHT22;28026;48.562;14.440;2023-09-19T01:54:09;15.10;99.90
41592;DHT22;28026;48.562;14.440;2023-09-19T01:59:52;14.90;99.90
41592;DHT22;28026;48.562;14.440;2023-09-19T02:02:31;15.00;99.90
41592;DHT22;28026;48.562;14.440;2023-09-19T02:05:12;15.00;99.90
41592;DHT22;28026;48.562;14.440;2023-09-19T02:07:44;15.10;99.90
41592;DHT22;28026;48.562;14.440;2023-09-19T02:10:15;15.00;99.90
41592;DHT22;28026;48.562;14.440;2023-09-19T02:12:48;15.10;99.90
41592;DHT22;28026;48.562;14.440;2023-09-19T02:15:18;15.10;99.90
41592;DHT22;28026;48.562;14.440;2023-09-19T02:17:49;15.20;99.90
41592;DHT22;28026;48.562;14.440;2023-09-19T02:20:20;15.30;99.90
41592;DHT22;28026;48.562;14.440;2023-09-19T02:22:51;15.30;99.90
41592;DHT22;28026;48.562;14.440;2023-09-19T02:25:22;15.30;99.90
41592;DHT22;28026;48.562;14.440;2023-09-19T02:27:53;15.30;99.90
41592;DHT22;28026;48.562;14.440;2023-09-19T02:30:29;15.20;99.90
41592;DHT22;28026;48.562;14.440;2023-09-19T02:33:00;15.10;99.90
41592;DHT22;28026;48.562;14.440;2023-09-19T02:35:34;15.00;99.90
41592;DHT22;28026;48.562;14.440;2023-09-19T02:38:06;15.00;99.90
41592;DHT22;28026;48.562;14.440;2023-09-19T02:40:42;14.90;99.90
41592;DHT22;28026;48.562;14.440;2023-09-19T02:43:13;14.50;99.90
41592;DHT22;28026;48.562;14.440;2023-09-19T02:45:45;14.30;99.90
41592;DHT22;28026;48.562;14.440;2023-09-19T02:48:24;14.30;99.90
41592;DHT22;28026;48.562;14.440;2023-09-19T02:50:55;14.50;99.90
41592;DHT22;28026;48.562;14.440;2023-09-19T02:53:26;14.60;99.90
41592;DHT22;28026;48.562;14.440;2023-09-19T02:55:58;14.60;99.90
41592;DHT22;28026;48.562;14.440;2023-09-19T02:58:29;14.60;99.90
41592;DHT22;28026;48.562;14.440;2023-09-19T03:01:10;14.70;99.90
41592;DHT22;28026;48.562;14.440;2023-09-19T03:03:42;14.70;99.90
41592;DHT22;28026;48.562;14.440;2023-09-19T03:06:13;14.80;99.90
41592;DHT22;28026;48.562;14.440;2023-09-19T03:08:45;14.80;99.90
41592;DHT22;28026;48.562;14.440;2023-09-19T03:11:17;14.70;99.90
41592;DHT22;28026;48.562;14.440;2023-09-19T03:13:54;14.70;99.90
41592;DHT22;28026;48.562;14.440;2023-09-19T03:16:26;14.70;99.90
41592;DHT22;28026;48.562;14.440;2023-09-19T03:18:56;14.70;99.90
41592;DHT22;28026;48.562;14.440;2023-09-19T03:21:28;14.80;99.90
41592;DHT22;28026;48.562;14.440;2023-09-19T03:24:00;14.90;99.90
41592;DHT22;28026;48.562;14.440;2023-09-19T03:26:31;14.90;99.90
41592;DHT22;28026;48.562;14.440;2023-09-19T03:29:04;14.90;99.90
41592;DHT22;28026;48.562;14.440;2023-09-19T03:31:38;15.00;99.90
41592;DHT22;28026;48.562;14.440;2023-09-19T03:34:09;15.00;99.90
41592;DHT22;28026;48.562;14.440;2023-09-19T03:36:40;15.00;99.90
41592;DHT22;28026;48.562;14.440;2023-09-19T03:39:11;14.90;99.90
41592;DHT22;28026;48.562;14.440;2023-09-19T03:41:43;14.90;99.90
41592;DHT22;28026;48.562;14.440;2023-09-19T03:44:14;15.00;99.90
41592;DHT22;28026;48.562;14.440;2023-09-19T03:46:45;15.00;99.90
41592;DHT22;28026;48.562;14.440;2023-09-19T03:49:16;14.90;99.90
41592;DHT22;28026;48.562;14.440;2023-09-19T03:51:47;15.00;99.90
41592;DHT22;28026;48.562;14.440;2023-09-19T03:54:18;15.00;99.90
41592;DHT22;28026;48.562;14.440;2023-09-19T03:56:49;15.00;99.90
41592;DHT22;28026;48.562;14.440;2023-09-19T03:59:20;15.00;99.90
41592;DHT22;28026;48.562;14.440;2023-09-19T04:01:52;15.00;99.90
41592;DHT22;28026;48.562;14.440;2023-09-19T04:04:26;14.80;99.90
41592;DHT22;28026;48.562;14.440;2023-09-19T04:06:57;14.70;99.90
41592;DHT22;28026;48.562;14.440;2023-09-19T04:09:28;14.70;99.90
41592;DHT22;28026;48.562;14.440;2023-09-19T04:11:59;14.70;99.90
41592;DHT22;28026;48.562;14.440;2023-09-19T04:14:30;14.70;99.90
41592;DHT22;28026;48.562;14.440;2023-09-19T04:17:01;14.60;99.90
41592;DHT22;28026;48.562;14.440;2023-09-19T04:19:31;14.70;99.90
41592;DHT22;28026;48.562;14.440;2023-09-19T04:22:02;14.70;99.90
41592;DHT22;28026;48.562;14.440;2023-09-19T04:24:34;14.80;99.90
41592;DHT22;28026;48.562;14.440;2023-09-19T04:27:05;14.80;99.90
41592;DHT22;28026;48.562;14.440;2023-09-19T04:29:37;14.90;99.90
41592;DHT22;28026;48.562;14.440;2023-09-19T04:32:09;14.90;99.90
41592;DHT22;28026;48.562;14.440;2023-09-19T04:34:40;14.90;99.90
41592;DHT22;28026;48.562;14.440;2023-09-19T04:37:11;14.80;99.90
41592;DHT22;28026;48.562;14.440;2023-09-19T04:39:45;14.70;99.90
41592;DHT22;28026;48.562;14.440;2023-09-19T04:42:16;14.70;99.90
41592;DHT22;28026;48.562;14.440;2023-09-19T04:44:48;14.60;99.90
41592;DHT22;28026;48.562;14.440;2023-09-19T04:47:19;14.60;99.90
41592;DHT22;28026;48.562;14.440;2023-09-19T04:49:52;14.60;99.90
41592;DHT22;28026;48.562;14.440;2023-09-19T04:52:23;14.50;99.90
41592;DHT22;28026;48.562;14.440;2023-09-19T04:54:54;14.30;99.90
41592;DHT22;28026;48.562;14.440;2023-09-19T04:57:25;14.40;99.90
41592;DHT22;28026;48.562;14.440;2023-09-19T04:59:56;14.40;99.90
41592;DHT22;28026;48.562;14.440;2023-09-19T05:02:29;14.50;99.90
41592;DHT22;28026;48.562;14.440;2023-09-19T05:05:01;14.40;99.90
41592;DHT22;28026;48.562;14.440;2023-09-19T05:07:32;14.40;99.90
41592;DHT22;28026;48.562;14.440;2023-09-19T05:10:04;14.40;99.90
41592;DHT22;28026;48.562;14.440;2023-09-19T05:12:37;14.40;99.90
41592;DHT22;28026;48.562;14.440;2023-09-19T05:15:08;14.40;99.90
41592;DHT22;28026;48.562;14.440;2023-09-19T05:17:39;14.30;99.90
41592;DHT22;28026;48.562;14.440;2023-09-19T05:20:11;14.30;99.90
41592;DHT22;28026;48.562;14.440;2023-09-19T05:22:45;14.50;99.90
41592;DHT22;28026;48.562;14.440;2023-09-19T05:25:16;14.60;99.90
41592;DHT22;28026;48.562;14.440;2023-09-19T05:27:48;14.70;99.90
41592;DHT22;28026;48.562;14.440;2023-09-19T05:30:20;14.70;99.90
41592;DHT22;28026;48.562;14.440;2023-09-19T05:32:53;14.70;99.90
41592;DHT22;28026;48.562;14.440;2023-09-19T05:35:25;14.50;99.90
41592;DHT22;28026;48.562;14.440;2023-09-19T05:37:56;14.50;99.90
41592;DHT22;28026;48.562;14.440;2023-09-19T05:40:28;14.50;99.90
41592;DHT22;28026;48.562;14.440;2023-09-19T05:42:59;14.60;99.90
41592;DHT22;28026;48.562;14.440;2023-09-19T05:45:30;14.60;99.90
41592;DHT22;28026;48.562;14.440;2023-09-19T05:48:12;14.70;99.90
41592;DHT22;28026;48.562;14.440;2023-09-19T05:50:45;14.80;99.90
41592;DHT22;28026;48.562;14.440;2023-09-19T05:53:19;14.90;99.90
41592;DHT22;28026;48.562;14.440;2023-09-19T05:55:50;15.00;99.90
41592;DHT22;28026;48.562;14.440;2023-09-19T05:58:20;15.10;99.90
41592;DHT22;28026;48.562;14.440;2023-09-19T06:00:51;15.20;99.90
41592;DHT22;28026;48.562;14.440;2023-09-19T06:03:22;15.20;99.90
41592;DHT22;28026;48.562;14.440;2023-09-19T06:05:53;15.30;99.90
41592;DHT22;28026;48.562;14.440;2023-09-19T06:08:27;15.20;99.90
41592;DHT22;28026;48.562;14.440;2023-09-19T06:10:59;15.00;99.90
41592;DHT22;28026;48.562;14.440;2023-09-19T06:13:30;15.10;99.90
41592;DHT22;28026;48.562;14.440;2023-09-19T06:16:04;15.10;99.90
41592;DHT22;28026;48.562;14.440;2023-09-19T06:18:35;15.30;99.90
41592;DHT22;28026;48.562;14.440;2023-09-19T06:21:06;15.30;99.90
41592;DHT22;28026;48.562;14.440;2023-09-19T06:23:38;15.30;99.90
41592;DHT22;28026;48.562;14.440;2023-09-19T06:26:09;15.20;99.90
41592;DHT22;28026;48.562;14.440;2023-09-19T06:28:40;15.20;99.90
41592;DHT22;28026;48.562;14.440;2023-09-19T06:31:13;15.20;99.90
41592;DHT22;28026;48.562;14.440;2023-09-19T06:33:43;15.20;99.90
41592;DHT22;28026;48.562;14.440;2023-09-19T06:36:14;15.30;99.90
41592;DHT22;28026;48.562;14.440;2023-09-19T06:38:45;15.30;99.90
41592;DHT22;28026;48.562;14.440;2023-09-19T06:41:17;15.40;99.90
41592;DHT22;28026;48.562;14.440;2023-09-19T06:43:48;15.40;99.90
41592;DHT22;28026;48.562;14.440;2023-09-19T06:46:19;15.60;99.90
41592;DHT22;28026;48.562;14.440;2023-09-19T06:48:51;15.50;99.90
41592;DHT22;28026;48.562;14.440;2023-09-19T06:51:22;15.30;99.90
41592;DHT22;28026;48.562;14.440;2023-09-19T06:53:53;15.40;99.90
41592;DHT22;28026;48.562;14.440;2023-09-19T06:56:24;15.60;99.90
41592;DHT22;28026;48.562;14.440;2023-09-19T06:58:56;15.90;99.90
41592;DHT22;28026;48.562;14.440;2023-09-19T07:01:26;15.90;99.90
41592;DHT22;28026;48.562;14.440;2023-09-19T07:03:57;16.20;99.90
41592;DHT22;28026;48.562;14.440;2023-09-19T07:06:28;16.10;99.90
41592;DHT22;28026;48.562;14.440;2023-09-19T07:08:59;16.00;99.90
41592;DHT22;28026;48.562;14.440;2023-09-19T07:11:30;15.70;99.90
41592;DHT22;28026;48.562;14.440;2023-09-19T07:14:01;15.70;99.90
41592;DHT22;28026;48.562;14.440;2023-09-19T07:16:33;15.90;99.90
41592;DHT22;28026;48.562;14.440;2023-09-19T07:19:06;16.10;99.90
41592;DHT22;28026;48.562;14.440;2023-09-19T07:21:37;16.40;99.90
41592;DHT22;28026;48.562;14.440;2023-09-19T07:24:09;16.20;99.90
41592;DHT22;28026;48.562;14.440;2023-09-19T07:26:40;16.10;99.90
41592;DHT22;28026;48.562;14.440;2023-09-19T07:29:11;16.30;99.90
41592;DHT22;28026;48.562;14.440;2023-09-19T07:31:41;16.70;99.90
41592;DHT22;28026;48.562;14.440;2023-09-19T07:34:14;17.10;99.90
41592;DHT22;28026;48.562;14.440;2023-09-19T07:36:45;17.40;99.90
41592;DHT22;28026;48.562;14.440;2023-09-19T07:39:17;17.40;99.90
41592;DHT22;28026;48.562;14.440;2023-09-19T07:41:48;17.40;99.90
41592;DHT22;28026;48.562;14.440;2023-09-19T07:44:20;17.10;99.90
41592;DHT22;28026;48.562;14.440;2023-09-19T07:46:51;16.80;99.90
41592;DHT22;28026;48.562;14.440;2023-09-19T07:49:22;16.60;99.90
41592;DHT22;28026;48.562;14.440;2023-09-19T07:51:53;16.30;99.90
41592;DHT22;28026;48.562;14.440;2023-09-19T07:54:25;16.20;99.90
41592;DHT22;28026;48.562;14.440;2023-09-19T07:56:56;16.10;99.90
41592;DHT22;28026;48.562;14.440;2023-09-19T07:59:27;16.10;99.90
41592;DHT22;28026;48.562;14.440;2023-09-19T08:01:58;15.90;99.90
41592;DHT22;28026;48.562;14.440;2023-09-19T08:04:29;16.00;99.90
41592;DHT22;28026;48.562;14.440;2023-09-19T08:07:03;16.00;99.90
41592;DHT22;28026;48.562;14.440;2023-09-19T08:09:34;16.20;99.90
41592;DHT22;28026;48.562;14.440;2023-09-19T08:12:06;16.20;99.90
41592;DHT22;28026;48.562;14.440;2023-09-19T08:14:42;16.30;99.90
41592;DHT22;28026;48.562;14.440;2023-09-19T08:17:12;16.20;99.90
41592;DHT22;28026;48.562;14.440;2023-09-19T08:19:45;16.20;99.90
41592;DHT22;28026;48.562;14.440;2023-09-19T08:22:16;16.30;99.90
41592;DHT22;28026;48.562;14.440;2023-09-19T08:24:47;16.40;99.90
41592;DHT22;28026;48.562;14.440;2023-09-19T08:27:18;16.30;99.90
41592;DHT22;28026;48.562;14.440;2023-09-19T08:29:49;16.20;99.90
41592;DHT22;28026;48.562;14.440;2023-09-19T08:32:22;16.00;99.90
41592;DHT22;28026;48.562;14.440;2023-09-19T08:34:54;16.00;99.90
41592;DHT22;28026;48.562;14.440;2023-09-19T08:37:25;16.00;99.90
41592;DHT22;28026;48.562;14.440;2023-09-19T08:39:56;16.10;99.90
41592;DHT22;28026;48.562;14.440;2023-09-19T08:42:28;15.90;99.90
41592;DHT22;28026;48.562;14.440;2023-09-19T08:44:59;15.80;99.90
41592;DHT22;28026;48.562;14.440;2023-09-19T08:47:45;15.70;99.90
41592;DHT22;28026;48.562;14.440;2023-09-19T08:50:28;16.10;99.90
41592;DHT22;28026;48.562;14.440;2023-09-19T08:53:01;16.70;99.90
41592;DHT22;28026;48.562;14.440;2023-09-19T08:55:43;17.10;99.90
41592;DHT22;28026;48.562;14.440;2023-09-19T08:58:20;17.70;99.90
41592;DHT22;28026;48.562;14.440;2023-09-19T09:00:58;17.80;99.90
41592;DHT22;28026;48.562;14.440;2023-09-19T09:03:33;17.60;99.90
41592;DHT22;28026;48.562;14.440;2023-09-19T09:06:08;17.60;99.90
41592;DHT22;28026;48.562;14.440;2023-09-19T09:08:46;17.70;99.90
41592;DHT22;28026;48.562;14.440;2023-09-19T09:11:18;17.40;99.90
41592;DHT22;28026;48.562;14.440;2023-09-19T09:13:50;17.30;99.90
41592;DHT22;28026;48.562;14.440;2023-09-19T09:16:21;16.90;99.90
41592;DHT22;28026;48.562;14.440;2023-09-19T09:18:56;17.20;99.90
41592;DHT22;28026;48.562;14.440;2023-09-19T09:21:34;17.10;99.90
41592;DHT22;28026;48.562;14.440;2023-09-19T09:24:31;17.20;99.90
41592;DHT22;28026;48.562;14.440;2023-09-19T09:27:06;17.10;99.90
41592;DHT22;28026;48.562;14.440;2023-09-19T09:29:44;16.80;99.90
41592;DHT22;28026;48.562;14.440;2023-09-19T09:34:58;17.30;99.90
41592;DHT22;28026;48.562;14.440;2023-09-19T09:37:31;17.60;99.90
41592;DHT22;28026;48.562;14.440;2023-09-19T09:40:03;17.50;99.90
41592;DHT22;28026;48.562;14.440;2023-09-19T09:42:55;17.70;99.90
41592;DHT22;28026;48.562;14.440;2023-09-19T09:45:29;17.80;99.90
41592;DHT22;28026;48.562;14.440;2023-09-19T09:48:05;17.60;99.90
41592;DHT22;28026;48.562;14.440;2023-09-19T09:50:47;17.40;99.90
41592;DHT22;28026;48.562;14.440;2023-09-19T09:53:26;17.30;99.90
41592;DHT22;28026;48.562;14.440;2023-09-19T09:56:06;17.30;99.90
41592;DHT22;28026;48.562;14.440;2023-09-19T10:01:19;17.30;99.90
41592;DHT22;28026;48.562;14.440;2023-09-19T10:03:57;17.30;99.90
41592;DHT22;28026;48.562;14.440;2023-09-19T10:06:40;17.00;99.90
41592;DHT22;28026;48.562;14.440;2023-09-19T10:09:17;17.00;99.90
41592;DHT22;28026;48.562;14.440;2023-09-19T10:12:05;17.10;99.90
41592;DHT22;28026;48.562;14.440;2023-09-19T10:14:41;17.20;99.90
41592;DHT22;28026;48.562;14.440;2023-09-19T10:17:18;17.50;99.90
41592;DHT22;28026;48.562;14.440;2023-09-19T10:19:57;17.60;99.90
41592;DHT22;28026;48.562;14.440;2023-09-19T10:22:31;19.20;99.90
41592;DHT22;28026;48.562;14.440;2023-09-19T10:25:06;18.60;99.90
41592;DHT22;28026;48.562;14.440;2023-09-19T10:27:40;18.40;99.90
41592;DHT22;28026;48.562;14.440;2023-09-19T10:30:13;17.80;99.90
41592;DHT22;28026;48.562;14.440;2023-09-19T10:32:47;17.70;99.90
41592;DHT22;28026;48.562;14.440;2023-09-19T10:35:29;17.80;99.90
41592;DHT22;28026;48.562;14.440;2023-09-19T10:38:01;17.50;99.90
41592;DHT22;28026;48.562;14.440;2023-09-19T10:40:34;17.40;99.90
41592;DHT22;28026;48.562;14.440;2023-09-19T10:43:07;17.10;99.90
41592;DHT22;28026;48.562;14.440;2023-09-19T10:45:50;17.50;99.90
41592;DHT22;28026;48.562;14.440;2023-09-19T10:48:22;17.50;99.90
41592;DHT22;28026;48.562;14.440;2023-09-19T10:51:12;17.60;99.90
41592;DHT22;28026;48.562;14.440;2023-09-19T10:54:11;17.60;99.90
41592;DHT22;28026;48.562;14.440;2023-09-19T10:56:50;17.90;99.90
41592;DHT22;28026;48.562;14.440;2023-09-19T10:59:23;18.40;99.90
41592;DHT22;28026;48.562;14.440;2023-09-19T11:01:56;19.10;99.90
41592;DHT22;28026;48.562;14.440;2023-09-19T11:04:34;19.20;99.90
41592;DHT22;28026;48.562;14.440;2023-09-19T11:07:08;19.80;99.90
41592;DHT22;28026;48.562;14.440;2023-09-19T11:09:51;19.20;99.90
41592;DHT22;28026;48.562;14.440;2023-09-19T11:15:06;19.50;99.90
41592;DHT22;28026;48.562;14.440;2023-09-19T11:17:42;19.20;99.90
41592;DHT22;28026;48.562;14.440;2023-09-19T11:20:19;18.70;99.90
41592;DHT22;28026;48.562;14.440;2023-09-19T11:23:18;18.30;99.90
41592;DHT22;28026;48.562;14.440;2023-09-19T11:25:53;18.20;99.90
41592;DHT22;28026;48.562;14.440;2023-09-19T11:28:28;18.00;99.90
41592;DHT22;28026;48.562;14.440;2023-09-19T11:34:37;18.00;99.90
41592;DHT22;28026;48.562;14.440;2023-09-19T11:42:48;18.30;99.90
41592;DHT22;28026;48.562;14.440;2023-09-19T11:48:18;18.30;99.90
41592;DHT22;28026;48.562;14.440;2023-09-19T11:50:50;19.20;99.90
41592;DHT22;28026;48.562;14.440;2023-09-19T11:53:23;19.10;99.90
41592;DHT22;28026;48.562;14.440;2023-09-19T11:56:06;18.70;99.90
41592;DHT22;28026;48.562;14.440;2023-09-19T11:58:41;18.40;99.90
41592;DHT22;28026;48.562;14.440;2023-09-19T12:01:13;18.30;99.90
41592;DHT22;28026;48.562;14.440;2023-09-19T12:03:55;18.10;99.90
41592;DHT22;28026;48.562;14.440;2023-09-19T12:06:30;17.90;99.90
41592;DHT22;28026;48.562;14.440;2023-09-19T12:09:03;17.60;99.90
41592;DHT22;28026;48.562;14.440;2023-09-19T12:11:42;17.60;99.90
41592;DHT22;28026;48.562;14.440;2023-09-19T12:14:23;17.50;99.90
41592;DHT22;28026;48.562;14.440;2023-09-19T12:16:57;17.90;99.90
41592;DHT22;28026;48.562;14.440;2023-09-19T12:19:30;17.80;99.90
41592;DHT22;28026;48.562;14.440;2023-09-19T12:22:03;17.80;99.90
41592;DHT22;28026;48.562;14.440;2023-09-19T12:24:36;17.80;99.90
41592;DHT22;28026;48.562;14.440;2023-09-19T12:27:11;17.80;99.90
41592;DHT22;28026;48.562;14.440;2023-09-19T12:29:47;17.90;99.90
41592;DHT22;28026;48.562;14.440;2023-09-19T12:32:34;18.10;99.90
41592;DHT22;28026;48.562;14.440;2023-09-19T12:35:06;18.30;99.90
41592;DHT22;28026;48.562;14.440;2023-09-19T12:37:44;18.10;99.90
41592;DHT22;28026;48.562;14.440;2023-09-19T12:40:24;18.30;99.90
41592;DHT22;28026;48.562;14.440;2023-09-19T12:42:59;19.20;99.90
41592;DHT22;28026;48.562;14.440;2023-09-19T12:45:33;19.50;99.90
41592;DHT22;28026;48.562;14.440;2023-09-19T12:48:23;19.40;99.90
41592;DHT22;28026;48.562;14.440;2023-09-19T12:51:11;19.20;99.90
41592;DHT22;28026;48.562;14.440;2023-09-19T12:53:46;19.50;99.90
41592;DHT22;28026;48.562;14.440;2023-09-19T12:56:28;19.40;99.90
41592;DHT22;28026;48.562;14.440;2023-09-19T12:59:15;19.50;99.90
41592;DHT22;28026;48.562;14.440;2023-09-19T13:02:03;19.30;99.90
41592;DHT22;28026;48.562;14.440;2023-09-19T13:04:55;19.40;99.90
41592;DHT22;28026;48.562;14.440;2023-09-19T13:07:44;19.10;99.90
41592;DHT22;28026;48.562;14.440;2023-09-19T13:10:20;19.00;99.90
41592;DHT22;28026;48.562;14.440;2023-09-19T13:12:54;18.70;99.90
41592;DHT22;28026;48.562;14.440;2023-09-19T13:15:26;18.70;99.90
41592;DHT22;28026;48.562;14.440;2023-09-19T13:18:11;18.60;99.90
41592;DHT22;28026;48.562;14.440;2023-09-19T13:21:10;18.10;99.90
41592;DHT22;28026;48.562;14.440;2023-09-19T13:23:58;17.90;99.90
41592;DHT22;28026;48.562;14.440;2023-09-19T13:26:57;18.40;99.90
41592;DHT22;28026;48.562;14.440;2023-09-19T13:29:30;18.60;99.90
41592;DHT22;28026;48.562;14.440;2023-09-19T13:32:01;18.30;99.90
41592;DHT22;28026;48.562;14.440;2023-09-19T13:34:32;17.90;99.90
41592;DHT22;28026;48.562;14.440;2023-09-19T13:37:03;17.80;99.90
41592;DHT22;28026;48.562;14.440;2023-09-19T13:39:35;17.80;99.90
41592;DHT22;28026;48.562;14.440;2023-09-19T13:42:06;17.90;99.90
41592;DHT22;28026;48.562;14.440;2023-09-19T13:44:37;17.90;99.90
41592;DHT22;28026;48.562;14.440;2023-09-19T13:47:08;17.50;99.90
41592;DHT22;28026;48.562;14.440;2023-09-19T13:49:40;16.70;99.90
41592;DHT22;28026;48.562;14.440;2023-09-19T13:52:12;16.10;99.90
41592;DHT22;28026;48.562;14.440;2023-09-19T13:54:43;15.90;99.90
41592;DHT22;28026;48.562;14.440;2023-09-19T13:57:14;15.60;99.90
41592;DHT22;28026;48.562;14.440;2023-09-19T13:59:45;15.70;99.90
41592;DHT22;28026;48.562;14.440;2023-09-19T14:02:16;15.60;99.90
41592;DHT22;28026;48.562;14.440;2023-09-19T14:04:49;15.70;99.90
41592;DHT22;28026;48.562;14.440;2023-09-19T14:07:20;15.90;99.90
41592;DHT22;28026;48.562;14.440;2023-09-19T14:09:51;15.70;99.90
41592;DHT22;28026;48.562;14.440;2023-09-19T14:12:23;16.00;99.90
41592;DHT22;28026;48.562;14.440;2023-09-19T14:14:54;16.10;99.90
41592;DHT22;28026;48.562;14.440;2023-09-19T14:17:26;16.00;99.90
41592;DHT22;28026;48.562;14.440;2023-09-19T14:19:58;16.10;99.90
41592;DHT22;28026;48.562;14.440;2023-09-19T14:22:31;16.10;99.90
41592;DHT22;28026;48.562;14.440;2023-09-19T14:25:03;16.00;99.90
41592;DHT22;28026;48.562;14.440;2023-09-19T14:27:35;16.10;99.90
41592;DHT22;28026;48.562;14.440;2023-09-19T14:30:07;16.20;99.90
41592;DHT22;28026;48.562;14.440;2023-09-19T14:32:39;16.00;99.90
41592;DHT22;28026;48.562;14.440;2023-09-19T14:35:10;15.90;99.90
41592;DHT22;28026;48.562;14.440;2023-09-19T14:37:41;15.90;99.90
41592;DHT22;28026;48.562;14.440;2023-09-19T14:40:12;16.10;99.90
41592;DHT22;28026;48.562;14.440;2023-09-19T14:42:46;16.30;99.90
41592;DHT22;28026;48.562;14.440;2023-09-19T14:45:18;16.60;99.90
41592;DHT22;28026;48.562;14.440;2023-09-19T14:47:50;17.00;99.90
41592;DHT22;28026;48.562;14.440;2023-09-19T14:50:26;17.40;99.90
41592;DHT22;28026;48.562;14.440;2023-09-19T14:52:57;17.60;99.90
41592;DHT22;28026;48.562;14.440;2023-09-19T14:55:32;17.90;99.90
41592;DHT22;28026;48.562;14.440;2023-09-19T14:58:11;18.10;99.90
41592;DHT22;28026;48.562;14.440;2023-09-19T15:00:42;19.20;99.90
41592;DHT22;28026;48.562;14.440;2023-09-19T15:03:16;20.10;99.90
41592;DHT22;28026;48.562;14.440;2023-09-19T15:05:48;19.30;99.90
41592;DHT22;28026;48.562;14.440;2023-09-19T15:08:19;18.80;99.90
41592;DHT22;28026;48.562;14.440;2023-09-19T15:10:50;18.30;99.90
41592;DHT22;28026;48.562;14.440;2023-09-19T15:13:23;18.20;99.90
41592;DHT22;28026;48.562;14.440;2023-09-19T15:16:04;18.90;99.90
41592;DHT22;28026;48.562;14.440;2023-09-19T15:18:43;19.50;99.90
41592;DHT22;28026;48.562;14.440;2023-09-19T15:21:18;18.80;99.90
41592;DHT22;28026;48.562;14.440;2023-09-19T15:23:48;18.80;99.90
41592;DHT22;28026;48.562;14.440;2023-09-19T15:26:19;18.90;99.90
41592;DHT22;28026;48.562;14.440;2023-09-19T15:28:56;18.40;99.90
41592;DHT22;28026;48.562;14.440;2023-09-19T15:31:27;18.40;99.90
41592;DHT22;28026;48.562;14.440;2023-09-19T15:33:58;18.00;99.90
41592;DHT22;28026;48.562;14.440;2023-09-19T15:36:29;17.80;99.90
41592;DHT22;28026;48.562;14.440;2023-09-19T15:39:05;17.90;99.90
41592;DHT22;28026;48.562;14.440;2023-09-19T15:41:42;17.10;99.90
41592;DHT22;28026;48.562;14.440;2023-09-19T15:44:19;17.10;99.90
41592;DHT22;28026;48.562;14.440;2023-09-19T15:46:50;17.00;99.90
41592;DHT22;28026;48.562;14.440;2023-09-19T15:49:21;17.40;99.90
41592;DHT22;28026;48.562;14.440;2023-09-19T15:51:53;17.50;99.90
41592;DHT22;28026;48.562;14.440;2023-09-19T15:54:25;17.60;99.90
41592;DHT22;28026;48.562;14.440;2023-09-19T15:56:59;17.70;99.90
41592;DHT22;28026;48.562;14.440;2023-09-19T15:59:30;17.90;99.90
41592;DHT22;28026;48.562;14.440;2023-09-19T16:02:01;18.20;99.90
41592;DHT22;28026;48.562;14.440;2023-09-19T16:04:32;18.30;99.90
41592;DHT22;28026;48.562;14.440;2023-09-19T16:07:03;18.20;99.90
41592;DHT22;28026;48.562;14.440;2023-09-19T16:09:34;18.30;99.90
41592;DHT22;28026;48.562;14.440;2023-09-19T16:12:06;18.70;99.90
41592;DHT22;28026;48.562;14.440;2023-09-19T16:14:37;18.90;99.90
41592;DHT22;28026;48.562;14.440;2023-09-19T16:17:08;19.00;99.90
41592;DHT22;28026;48.562;14.440;2023-09-19T16:19:39;19.10;99.90
41592;DHT22;28026;48.562;14.440;2023-09-19T16:22:10;19.10;99.90
41592;DHT22;28026;48.562;14.440;2023-09-19T16:24:42;18.80;99.90
41592;DHT22;28026;48.562;14.440;2023-09-19T16:27:13;18.30;99.90
41592;DHT22;28026;48.562;14.440;2023-09-19T16:29:45;17.90;99.90
41592;DHT22;28026;48.562;14.440;2023-09-19T16:32:18;17.60;99.90
41592;DHT22;28026;48.562;14.440;2023-09-19T16:34:50;17.50;99.90